createdAt,value
2018-06-13T00:00:18.220Z,18.29
2018-06-13T00:00:58.670Z,18.32
2018-06-13T00:01:39.028Z,18.26
2018-06-13T00:02:19.507Z,18.28
2018-06-13T00:02:59.872Z,18.26
2018-06-13T00:04:50.634Z,18.26
2018-06-13T00:05:28.983Z,18.23
2018-06-13T00:06:12.077Z,18.25
2018-06-13T00:06:51.765Z,18.25
2018-06-13T00:07:32.218Z,18.19
2018-06-13T00:08:12.711Z,18.23
2018-06-13T00:08:53.234Z,18.29
2018-06-13T00:09:33.632Z,18.29
2018-06-13T00:10:15.239Z,18.31
2018-06-13T00:10:56.007Z,18.21
2018-06-13T00:11:36.398Z,18.16
2018-06-13T00:12:17.870Z,18.16
2018-06-13T00:12:58.180Z,18.19
2018-06-13T00:13:38.708Z,18.19
2018-06-13T00:14:19.873Z,18.07
2018-06-13T00:15:01.606Z,18.1
2018-06-13T00:15:42.004Z,18.09
2018-06-13T00:16:23.480Z,18.09
2018-06-13T00:17:03.905Z,18.04
2018-06-13T00:17:44.370Z,18.01
2018-06-13T00:18:25.367Z,18.01
2018-06-13T00:19:05.786Z,18.04
2018-06-13T00:19:46.432Z,17.96
2018-06-13T00:20:26.682Z,18.02
2018-06-13T00:21:07.357Z,17.98
2018-06-13T00:21:47.572Z,18.11
2018-06-13T00:22:27.981Z,18.04
2018-06-13T00:23:08.547Z,18.1
2018-06-13T00:23:51.044Z,18.14
2018-06-13T00:24:31.425Z,18.09
2018-06-13T00:25:11.842Z,18.1
2018-06-13T00:25:52.365Z,18.02
2018-06-13T00:26:32.716Z,17.99
2018-06-13T00:27:13.561Z,18.02
2018-06-13T00:27:53.521Z,17.96
2018-06-13T00:28:34.017Z,18.02
2018-06-13T00:29:14.549Z,17.91
2018-06-13T00:29:54.689Z,17.95
2018-06-13T00:30:36.169Z,17.91
2018-06-13T00:31:16.539Z,17.95
2018-06-13T00:31:58.495Z,17.89
2018-06-13T00:32:38.866Z,17.89
2018-06-13T00:33:19.431Z,17.95
2018-06-13T00:34:00.009Z,17.92
2018-06-13T00:34:40.375Z,17.84
2018-06-13T00:35:20.790Z,17.92
2018-06-13T00:36:02.296Z,17.95
2018-06-13T00:36:42.779Z,17.91
2018-06-13T00:37:23.172Z,17.94
2018-06-13T00:38:03.698Z,17.87
2018-06-13T00:38:44.274Z,17.86
2018-06-13T00:39:24.598Z,17.89
2018-06-13T00:40:05.073Z,17.87
2018-06-13T00:40:45.602Z,17.94
2018-06-13T00:41:26.237Z,17.96
2018-06-13T00:42:06.626Z,17.86
2018-06-13T00:42:47.014Z,17.83
2018-06-13T00:43:27.343Z,17.86
2018-06-13T00:44:07.818Z,17.8
2018-06-13T00:44:48.155Z,17.8
2018-06-13T00:45:29.413Z,17.68
2018-06-13T00:46:10.145Z,17.8
2018-06-13T00:46:50.264Z,17.77
2018-06-13T00:47:30.725Z,17.81
2018-06-13T00:48:11.767Z,17.7
2018-06-13T00:48:52.022Z,17.74
2018-06-13T00:49:32.448Z,17.74
2018-06-13T00:50:12.922Z,17.6
2018-06-13T00:50:53.369Z,17.63
2018-06-13T00:51:33.646Z,17.58
2018-06-13T00:52:14.089Z,17.53
2018-06-13T00:52:54.613Z,17.47
2018-06-13T00:53:34.899Z,17.46
2018-06-13T00:54:15.565Z,17.45
2018-06-13T00:54:57.673Z,17.45
2018-06-13T00:55:38.005Z,17.39
2018-06-13T00:57:51.229Z,17.38
2018-06-13T00:58:31.541Z,17.36
2018-06-13T00:59:12.276Z,17.39
2018-06-13T00:59:52.711Z,17.36
2018-06-13T01:00:33.068Z,17.38
2018-06-13T01:01:13.489Z,17.35
2018-06-13T01:01:53.934Z,17.3
2018-06-13T01:02:34.340Z,17.38
2018-06-13T01:03:14.673Z,17.32
2018-06-13T01:03:55.112Z,17.36
2018-06-13T01:04:35.629Z,17.36
2018-06-13T01:05:15.959Z,17.28
2018-06-13T01:05:56.352Z,17.33
2018-06-13T01:06:36.743Z,17.3
2018-06-13T01:07:17.178Z,17.46
2018-06-13T01:07:57.648Z,17.46
2018-06-13T01:08:38.042Z,17.46
2018-06-13T01:09:18.434Z,17.43
2018-06-13T01:09:58.818Z,17.36
2018-06-13T01:10:40.011Z,17.33
2018-06-13T01:11:20.389Z,17.32
2018-06-13T01:12:00.802Z,17.33
2018-06-13T01:12:41.189Z,17.27
2018-06-13T01:13:21.613Z,17.3
2018-06-13T01:14:02.012Z,17.24
2018-06-13T01:14:43.407Z,17.21
2018-06-13T01:15:23.761Z,17.25
2018-06-13T01:16:04.145Z,17.21
2018-06-13T01:16:44.502Z,17.25
2018-06-13T01:17:24.900Z,17.15
2018-06-13T01:18:05.382Z,17.18
2018-06-13T01:18:45.828Z,17.15
2018-06-13T01:19:28.311Z,17.07
2018-06-13T01:20:11.717Z,17.14
2018-06-13T01:20:52.065Z,17.14
2018-06-13T01:21:32.536Z,17.2
2018-06-13T01:22:12.920Z,17.07
2018-06-13T01:22:53.403Z,17.12
2018-06-13T01:23:33.917Z,17.14
2018-06-13T01:24:14.414Z,17.12
2018-06-13T01:24:55.113Z,17.18
2018-06-13T01:25:35.531Z,17.22
2018-06-13T01:26:17.479Z,17.14
2018-06-13T01:26:57.873Z,17.14
2018-06-13T01:27:39.144Z,17.27
2018-06-13T01:28:19.581Z,17.27
2018-06-13T01:28:59.976Z,17.28
2018-06-13T01:29:40.549Z,17.33
2018-06-13T01:30:20.984Z,17.25
2018-06-13T01:31:01.395Z,17.28
2018-06-13T01:31:41.842Z,17.33
2018-06-13T01:32:22.185Z,17.35
2018-06-13T01:33:02.585Z,17.33
2018-06-13T01:33:42.949Z,17.33
2018-06-13T01:34:23.434Z,17.38
2018-06-13T01:35:03.858Z,17.32
2018-06-13T01:35:45.055Z,17.32
2018-06-13T01:36:25.483Z,17.28
2018-06-13T01:37:05.901Z,17.28
2018-06-13T01:37:46.377Z,17.3
2018-06-13T01:38:26.732Z,17.28
2018-06-13T01:39:07.148Z,17.28
2018-06-13T01:39:47.525Z,17.28
2018-06-13T01:40:27.908Z,17.3
2018-06-13T01:41:08.364Z,17.25
2018-06-13T01:41:48.685Z,17.28
2018-06-13T01:42:29.108Z,17.28
2018-06-13T01:43:09.582Z,17.28
2018-06-13T01:43:49.971Z,17.3
2018-06-13T01:44:30.343Z,17.18
2018-06-13T01:45:10.730Z,17.12
2018-06-13T01:45:51.098Z,17.17
2018-06-13T01:46:31.591Z,17.15
2018-06-13T01:47:11.949Z,17.15
2018-06-13T01:47:52.351Z,17.1
2018-06-13T01:48:32.769Z,17.12
2018-06-13T01:49:13.213Z,17.12
2018-06-13T01:49:53.588Z,17.12
2018-06-13T01:50:33.950Z,17.14
2018-06-13T01:51:14.459Z,17.14
2018-06-13T01:51:54.867Z,17.18
2018-06-13T01:52:35.208Z,17.17
2018-06-13T01:53:15.648Z,17.17
2018-06-13T01:53:56.099Z,17.14
2018-06-13T01:54:36.497Z,17.2
2018-06-13T01:55:16.905Z,17.17
2018-06-13T01:55:57.288Z,17.15
2018-06-13T01:56:37.704Z,17.14
2018-06-13T01:57:19.649Z,17.15
2018-06-13T01:58:00.049Z,17.2
2018-06-13T01:58:40.448Z,17.1
2018-06-13T01:59:20.745Z,17.15
2018-06-13T02:00:01.233Z,17.1
2018-06-13T02:00:41.638Z,17.06
2018-06-13T02:01:22.014Z,16.95
2018-06-13T02:02:02.328Z,16.96
2018-06-13T02:02:42.795Z,17.06
2018-06-13T02:03:23.216Z,17.1
2018-06-13T02:04:08.050Z,17.12
2018-06-13T02:04:48.614Z,17.12
2018-06-13T02:05:31.284Z,17.14
2018-06-13T02:06:12.374Z,17.2
2018-06-13T02:06:54.179Z,17.14
2018-06-13T02:07:34.551Z,17.17
2018-06-13T02:08:17.572Z,17.27
2018-06-13T02:08:57.891Z,17.25
2018-06-13T02:09:38.279Z,17.39
2018-06-13T02:10:18.687Z,17.27
2018-06-13T02:11:00.773Z,17.33
2018-06-13T02:11:45.860Z,17.35
2018-06-13T02:12:26.296Z,17.33
2018-06-13T02:13:06.676Z,17.36
2018-06-13T02:13:47.097Z,17.22
2018-06-13T02:14:27.590Z,17.21
2018-06-13T02:15:07.941Z,17.18
2018-06-13T02:15:48.464Z,17.15
2018-06-13T02:16:35.868Z,17.18
2018-06-13T02:17:16.295Z,17.12
2018-06-13T02:17:56.632Z,17.14
2018-06-13T02:18:37.105Z,17.15
2018-06-13T02:19:17.469Z,17.2
2018-06-13T02:19:57.812Z,17.18
2018-06-13T02:20:38.252Z,17.15
2018-06-13T02:21:18.645Z,17.15
2018-06-13T02:21:59.037Z,17.14
2018-06-13T02:22:39.419Z,17.1
2018-06-13T02:23:19.850Z,17.15
2018-06-13T02:24:00.251Z,17.24
2018-06-13T02:24:40.612Z,17.18
2018-06-13T02:25:21.012Z,17.17
2018-06-13T02:26:01.375Z,17.12
2018-06-13T02:26:41.883Z,17.18
2018-06-13T02:27:22.278Z,17.18
2018-06-13T02:28:02.674Z,17.17
2018-06-13T02:28:43.235Z,17.27
2018-06-13T02:29:23.494Z,17.22
2018-06-13T02:30:05.456Z,17.2
2018-06-13T02:30:47.293Z,17.15
2018-06-13T02:31:26.780Z,17.14
2018-06-13T02:32:07.224Z,17.12
2018-06-13T02:32:48.099Z,17.22
2018-06-13T02:33:29.906Z,17.18
2018-06-13T02:34:10.149Z,17.1
2018-06-13T02:34:50.824Z,17.1
2018-06-13T02:35:31.199Z,17.2
2018-06-13T02:36:11.588Z,17.12
2018-06-13T02:36:53.333Z,17.21
2018-06-13T02:37:35.708Z,17.1
2018-06-13T02:38:16.076Z,17.15
2018-06-13T02:38:58.175Z,17.21
2018-06-13T02:39:39.539Z,17.15
2018-06-13T02:40:19.969Z,17.17
2018-06-13T02:41:01.544Z,17.17
2018-06-13T02:41:43.454Z,17.14
2018-06-13T02:42:24.995Z,17.09
2018-06-13T02:43:06.185Z,17.15
2018-06-13T02:43:46.606Z,17.07
2018-06-13T02:44:28.834Z,17.14
2018-06-13T02:45:11.084Z,17.17
2018-06-13T02:45:51.618Z,17.1
2018-06-13T02:46:32.009Z,17.17
2018-06-13T02:52:07.662Z,17.15
2018-06-13T02:52:51.168Z,17.22
2018-06-13T02:53:31.461Z,17.14
2018-06-13T02:54:11.871Z,17.1
2018-06-13T02:54:52.316Z,17.12
2018-06-13T02:55:32.707Z,17.17
2018-06-13T02:56:13.235Z,17.14
2018-06-13T02:56:53.547Z,17.1
2018-06-13T02:57:34.246Z,17.07
2018-06-13T02:58:14.594Z,17.07
2018-06-13T02:58:55.043Z,17.12
2018-06-13T02:59:35.453Z,17.1
2018-06-13T03:00:15.862Z,17.12
2018-06-13T03:00:56.365Z,17.1
2018-06-13T03:01:36.773Z,16.96
2018-06-13T03:02:17.213Z,16.98
2018-06-13T03:02:57.853Z,17.05
2018-06-13T03:03:38.251Z,17.12
2018-06-13T03:04:18.740Z,17.07
2018-06-13T03:04:59.137Z,17.14
2018-06-13T03:05:39.594Z,17.17
2018-06-13T03:06:19.980Z,17.22
2018-06-13T03:07:00.404Z,17.18
2018-06-13T03:07:40.878Z,17.12
2018-06-13T03:08:21.250Z,17.07
2018-06-13T03:09:01.753Z,17.1
2018-06-13T03:09:42.842Z,17.14
2018-06-13T03:10:22.851Z,17.17
2018-06-13T03:11:03.339Z,17.2
2018-06-13T03:11:44.858Z,17.21
2018-06-13T03:12:25.287Z,17.18
2018-06-13T03:13:05.747Z,17.24
2018-06-13T03:13:46.163Z,17.14
2018-06-13T03:14:26.740Z,17.14
2018-06-13T03:15:06.944Z,17.1
2018-06-13T03:15:48.291Z,17.17
2018-06-13T03:16:29.068Z,17.14
2018-06-13T03:17:09.487Z,17.07
2018-06-13T03:17:49.973Z,17.17
2018-06-13T03:18:30.549Z,17.06
2018-06-13T03:19:10.949Z,17.07
2018-06-13T03:19:51.647Z,17.07
2018-06-13T03:20:32.883Z,17.05
2018-06-13T03:21:13.213Z,17.07
2018-06-13T03:21:53.625Z,17
2018-06-13T03:22:34.234Z,17
2018-06-13T03:23:14.621Z,16.92
2018-06-13T03:23:54.986Z,16.98
2018-06-13T03:24:35.791Z,17.02
2018-06-13T03:25:15.854Z,16.98
2018-06-13T03:25:56.371Z,16.99
2018-06-13T03:26:36.749Z,17
2018-06-13T03:28:24.265Z,17.09
2018-06-13T03:29:06.538Z,16.92
2018-06-13T03:29:46.958Z,17.05
2018-06-13T03:30:27.503Z,16.99
2018-06-13T03:31:08.042Z,16.95
2018-06-13T03:31:49.311Z,16.92
2018-06-13T03:32:29.601Z,16.96
2018-06-13T03:33:10.074Z,16.92
2018-06-13T03:33:50.330Z,16.87
2018-06-13T03:35:29.994Z,16.98
2018-06-13T03:36:09.889Z,16.9
2018-06-13T03:36:50.358Z,16.91
2018-06-13T03:37:30.949Z,16.96
2018-06-13T03:38:11.500Z,16.92
2018-06-13T03:41:59.771Z,16.98
2018-06-13T03:42:40.236Z,16.92
2018-06-13T03:43:20.683Z,16.92
2018-06-13T03:44:01.053Z,16.95
2018-06-13T03:44:42.193Z,16.91
2018-06-13T03:45:22.685Z,16.92
2018-06-13T03:46:03.092Z,16.95
2018-06-13T03:46:43.866Z,16.95
2018-06-13T03:47:24.340Z,16.99
2018-06-13T03:48:07.891Z,16.95
2018-06-13T03:48:48.295Z,16.91
2018-06-13T03:49:28.672Z,16.88
2018-06-13T03:50:09.174Z,16.96
2018-06-13T03:50:49.417Z,16.9
2018-06-13T03:51:29.885Z,16.87
2018-06-13T03:52:10.467Z,16.91
2018-06-13T03:52:50.737Z,16.92
2018-06-13T03:53:32.116Z,16.95
2018-06-13T03:54:12.510Z,16.91
2018-06-13T03:54:52.958Z,16.92
2018-06-13T03:55:34.077Z,16.98
2018-06-13T03:56:14.601Z,16.99
2018-06-13T03:56:54.962Z,16.95
2018-06-13T03:57:35.326Z,16.95
2018-06-13T03:58:16.530Z,16.99
2018-06-13T03:58:56.961Z,17.07
2018-06-13T03:59:37.402Z,17
2018-06-13T04:00:17.753Z,16.98
2018-06-13T04:00:58.402Z,17.12
2018-06-13T04:01:38.874Z,17.1
2018-06-13T04:02:19.305Z,17.17
2018-06-13T04:43:39.619Z,16.27
2018-06-13T04:46:53.981Z,16.37
2018-06-13T04:47:34.414Z,16.4
2018-06-13T04:48:15.771Z,16.33
2018-06-13T04:48:58.370Z,16.36
2018-06-13T04:49:39.270Z,16.4
2018-06-13T04:50:19.739Z,16.42
2018-06-13T04:51:06.380Z,16.4
2018-06-13T04:51:49.247Z,16.45
2018-06-13T04:52:33.336Z,16.55
2018-06-13T04:53:15.674Z,16.51
2018-06-13T04:53:57.346Z,16.66
2018-06-13T04:54:40.911Z,16.62
2018-06-13T04:55:21.312Z,16.73
2018-06-13T04:56:04.571Z,16.78
2018-06-13T04:56:46.311Z,16.8
2018-06-13T04:57:28.309Z,16.92
2018-06-13T04:58:08.701Z,16.92
2018-06-13T04:58:51.791Z,16.99
2018-06-13T04:59:32.269Z,16.96
2018-06-13T05:00:12.597Z,16.98
2018-06-13T05:00:53.984Z,16.96
2018-06-13T05:02:36.869Z,17.07
2018-06-13T05:03:16.197Z,17.18
2018-06-13T05:03:56.643Z,17.15
2018-06-13T05:04:37.045Z,17.14
2018-06-13T05:05:17.885Z,17.09
2018-06-13T05:05:58.285Z,17.12
2018-06-13T05:06:39.103Z,17.17
2018-06-13T05:07:19.418Z,17.18
2018-06-13T05:07:59.826Z,17.24
2018-06-13T05:08:41.076Z,17.27
2018-06-13T05:09:21.188Z,17.32
2018-06-13T05:10:01.708Z,17.36
2018-06-13T05:10:42.163Z,17.33
2018-06-13T05:11:22.539Z,17.36
2018-06-13T05:12:03.356Z,17.36
2018-06-13T05:12:43.780Z,17.35
2018-06-13T05:13:24.436Z,17.47
2018-06-13T05:14:05.077Z,17.36
2018-06-13T05:14:46.626Z,17.4
2018-06-13T05:15:28.182Z,17.49
2018-06-13T05:16:08.358Z,17.4
2018-06-13T05:16:49.724Z,17.4
2018-06-13T05:17:30.532Z,17.4
2018-06-13T05:18:11.069Z,17.38
2018-06-13T05:18:51.507Z,17.43
2018-06-13T05:19:31.884Z,17.49
2018-06-13T05:20:12.256Z,17.58
2018-06-13T05:20:52.808Z,17.58
2018-06-13T05:21:33.378Z,17.58
2018-06-13T05:22:13.990Z,17.66
2018-06-13T05:22:55.212Z,17.68
2018-06-13T05:23:35.805Z,17.65
2018-06-13T05:24:17.154Z,17.71
2018-06-13T05:24:59.750Z,17.74
2018-06-13T05:25:40.565Z,17.68
2018-06-13T05:26:21.100Z,17.74
2018-06-13T05:27:01.509Z,17.71
2018-06-13T05:27:42.163Z,17.79
2018-06-13T05:28:23.326Z,17.83
2018-06-13T05:29:04.571Z,17.84
2018-06-13T05:29:46.891Z,17.83
2018-06-13T05:30:27.661Z,17.84
2018-06-13T05:31:08.570Z,17.83
2018-06-13T05:31:49.416Z,17.81
2018-06-13T05:32:30.823Z,17.84
2018-06-13T05:33:11.316Z,17.94
2018-06-13T05:33:51.812Z,17.96
2018-06-13T05:34:32.320Z,17.99
2018-06-13T05:35:12.797Z,18.04
2018-06-13T05:35:54.097Z,18.07
2018-06-13T05:36:34.571Z,18.05
2018-06-13T05:37:15.101Z,17.99
2018-06-13T05:37:55.709Z,17.96
2018-06-13T05:38:36.162Z,18.02
2018-06-13T05:39:20.759Z,18.04
2018-06-13T05:40:01.498Z,18.02
2018-06-13T05:40:42.175Z,17.95
2018-06-13T05:41:23.479Z,17.99
2018-06-13T05:42:06.005Z,18.09
2018-06-13T05:42:46.713Z,18.11
2018-06-13T05:43:28.342Z,18.04
2018-06-13T05:44:08.779Z,17.99
2018-06-13T05:44:49.237Z,18.04
2018-06-13T05:45:29.788Z,18.07
2018-06-13T05:46:10.226Z,18.11
2018-06-13T05:46:50.822Z,18.1
2018-06-13T05:47:31.181Z,18.13
2018-06-13T05:48:13.034Z,18.13
2018-06-13T05:48:53.179Z,18.16
2018-06-13T05:49:34.081Z,18.16
2018-06-13T05:50:14.748Z,18.25
2018-06-13T05:50:54.966Z,18.28
2018-06-13T05:51:35.397Z,18.31
2018-06-13T05:52:15.957Z,18.2
2018-06-13T05:52:56.512Z,18.19
2018-06-13T05:53:37.113Z,18.2
2018-06-13T05:54:17.904Z,18.16
2018-06-13T05:54:58.232Z,18.16
2018-06-13T05:55:38.784Z,18.2
2018-06-13T05:56:19.539Z,18.19
2018-06-13T05:57:00.916Z,18.23
2018-06-13T05:57:41.422Z,18.25
2018-06-13T05:58:22.548Z,18.21
2018-06-13T05:59:03.324Z,18.31
2018-06-13T05:59:44.071Z,18.31
2018-06-13T06:00:25.413Z,18.28
2018-06-13T06:01:05.170Z,18.26
2018-06-13T06:01:45.581Z,18.35
2018-06-13T06:02:26.110Z,18.32
2018-06-13T06:03:07.238Z,18.29
2018-06-13T06:03:49.419Z,18.32
2018-06-13T06:04:30.233Z,18.34
2018-06-13T06:05:10.717Z,18.29
2018-06-13T06:05:51.130Z,18.31
2018-06-13T06:06:32.493Z,18.32
2018-06-13T06:07:13.526Z,18.32
2018-06-13T06:07:53.612Z,18.36
2018-06-13T06:08:35.020Z,18.34
2018-06-13T06:09:15.782Z,18.44
2018-06-13T06:09:56.349Z,18.46
2018-06-13T06:10:37.782Z,18.49
2018-06-13T06:11:18.261Z,18.49
2018-06-13T06:12:00.615Z,18.5
2018-06-13T06:12:41.266Z,18.47
2018-06-13T06:13:22.326Z,18.46
2018-06-13T06:14:02.479Z,18.47
2018-06-13T06:14:43.029Z,18.49
2018-06-13T06:15:24.154Z,18.51
2018-06-13T06:16:04.606Z,18.41
2018-06-13T06:16:45.035Z,18.44
2018-06-13T06:17:28.787Z,18.49
2018-06-13T06:18:09.417Z,18.44
2018-06-13T06:18:50.551Z,18.49
2018-06-13T06:19:34.167Z,18.5
2018-06-13T06:20:15.529Z,18.47
2018-06-13T06:20:55.558Z,18.49
2018-06-13T06:21:36.228Z,18.35
2018-06-13T06:22:16.939Z,18.36
2018-06-13T06:23:00.799Z,18.34
2018-06-13T06:23:41.486Z,18.36
2018-06-13T06:24:22.012Z,18.34
2018-06-13T06:25:02.269Z,18.34
2018-06-13T06:25:43.009Z,18.41
2018-06-13T06:26:24.019Z,18.51
2018-06-13T06:27:04.257Z,18.53
2018-06-13T06:27:44.641Z,18.46
2018-06-13T06:28:27.044Z,18.46
2018-06-13T06:29:08.692Z,18.44
2018-06-13T06:29:49.173Z,18.46
2018-06-13T06:30:30.294Z,18.46
2018-06-13T06:31:12.117Z,18.47
2018-06-13T06:31:54.753Z,18.66
2018-06-13T06:32:35.835Z,18.57
2018-06-13T06:33:16.968Z,18.64
2018-06-13T06:33:57.548Z,18.68
2018-06-13T06:34:39.713Z,18.72
2018-06-13T06:35:20.531Z,18.76
2018-06-13T06:36:01.202Z,18.89
2018-06-13T06:36:42.704Z,18.84
2018-06-13T06:37:23.802Z,18.89
2018-06-13T06:38:04.845Z,18.9
2018-06-13T06:38:46.038Z,18.99
2018-06-13T06:39:30.712Z,19.01
2018-06-13T06:40:10.889Z,18.97
2018-06-13T06:40:51.432Z,19.07
2018-06-13T06:41:32.562Z,19.13
2018-06-13T06:42:14.255Z,18.99
2018-06-13T06:42:55.645Z,19.09
2018-06-13T06:45:40.433Z,18.99
2018-06-13T06:46:25.343Z,19.07
2018-06-13T06:47:10.077Z,19.06
2018-06-13T06:47:49.874Z,19.2
2018-06-13T06:48:38.680Z,19.21
2018-06-13T06:49:23.839Z,19.32
2018-06-13T06:50:09.906Z,19.25
2018-06-13T06:50:50.577Z,19.31
2018-06-13T06:51:38.019Z,19.27
2018-06-13T06:52:22.793Z,19.43
2018-06-13T06:53:07.191Z,19.39
2018-06-13T06:53:51.180Z,19.46
2018-06-13T06:54:34.106Z,19.43
2018-06-13T06:55:19.303Z,19.47
2018-06-13T07:13:52.581Z,19.78
2018-06-13T07:23:58.958Z,19.78
2018-06-13T07:29:20.932Z,19.68
2018-06-13T07:32:46.512Z,19.45
2018-06-13T07:39:18.541Z,19.45
2018-06-13T07:48:17.174Z,19.43
2018-06-13T07:48:56.523Z,19.35
2018-06-13T07:50:09.758Z,19.46
2018-06-13T07:50:57.062Z,19.45
2018-06-13T07:52:54.005Z,19.45
2018-06-13T07:55:17.494Z,19.57
2018-06-13T07:58:44.801Z,19.67
2018-06-13T08:02:11.211Z,19.5
2018-06-13T08:02:51.431Z,19.46
2018-06-13T08:03:32.267Z,19.46
2018-06-13T08:04:13.679Z,19.49
2018-06-13T08:04:54.159Z,19.47
2018-06-13T08:05:35.206Z,19.52
2018-06-13T08:06:15.604Z,19.5
2018-06-13T08:06:56.289Z,19.45
2018-06-13T08:07:37.833Z,19.43
2018-06-13T08:08:20.328Z,19.45
2018-06-13T08:09:01.804Z,19.39
2018-06-13T08:09:42.239Z,19.53
2018-06-13T08:10:22.967Z,19.55
2018-06-13T08:11:03.456Z,19.5
2018-06-13T08:11:44.277Z,19.61
2018-06-13T08:12:24.697Z,19.62
2018-06-13T08:13:05.344Z,19.58
2018-06-13T08:13:46.150Z,19.53
2018-06-13T08:14:26.553Z,19.58
2018-06-13T08:15:07.247Z,19.53
2018-06-13T08:15:53.385Z,19.5
2018-06-13T08:16:35.723Z,19.38
2018-06-13T08:17:17.089Z,19.32
2018-06-13T08:20:24.098Z,19.47
2018-06-13T08:21:08.369Z,19.43
2018-06-13T08:21:49.404Z,19.42
2018-06-13T08:22:30.128Z,19.39
2018-06-13T08:23:10.606Z,19.52
2018-06-13T08:23:52.695Z,19.46
2018-06-13T08:24:34.281Z,19.45
2018-06-13T08:25:14.678Z,19.46
2018-06-13T08:25:55.809Z,19.39
2018-06-13T08:26:50.975Z,19.38
2018-06-13T08:27:49.270Z,19.35
2018-06-13T08:30:31.425Z,19.27
2018-06-13T08:31:11.520Z,19.17
2018-06-13T08:31:52.085Z,19.24
2018-06-13T08:32:32.911Z,19.25
2018-06-13T08:33:13.845Z,19.25
2018-06-13T08:33:54.418Z,19.21
2018-06-13T08:34:35.349Z,19.31
2018-06-13T08:35:16.448Z,19.27
2018-06-13T08:35:56.833Z,19.3
2018-06-13T08:36:37.861Z,19.39
2018-06-13T08:37:19.484Z,19.39
2018-06-13T08:37:59.687Z,19.39
2018-06-13T08:38:40.229Z,19.46
2018-06-13T08:39:20.685Z,19.4
2018-06-13T08:40:01.067Z,19.47
2018-06-13T08:40:41.677Z,19.5
2018-06-13T08:41:22.093Z,19.58
2018-06-13T08:42:02.568Z,19.53
2018-06-13T08:42:43.282Z,19.53
2018-06-13T08:43:23.707Z,19.53
2018-06-13T08:44:04.365Z,19.62
2018-06-13T08:44:44.961Z,19.57
2018-06-13T08:45:25.582Z,19.61
2018-06-13T08:46:07.695Z,19.78
2018-06-13T08:46:49.341Z,19.7
2018-06-13T08:47:30.071Z,19.83
2018-06-13T08:48:10.913Z,19.79
2018-06-13T08:48:52.225Z,19.9
2018-06-13T08:49:31.973Z,20.02
2018-06-13T08:50:12.573Z,19.94
2018-06-13T08:50:55.358Z,20
2018-06-13T08:51:38.283Z,20
2018-06-13T08:52:21.170Z,20.01
2018-06-13T08:53:02.281Z,19.98
2018-06-13T08:53:43.942Z,20.04
2018-06-13T08:54:25.682Z,20.07
2018-06-13T08:55:05.463Z,20.16
2018-06-13T08:55:48.122Z,20.08
2018-06-13T08:57:27.762Z,20.12
2018-06-13T08:58:11.121Z,20.13
2018-06-13T08:58:51.997Z,20.15
2018-06-13T08:59:34.834Z,20.08
2018-06-13T09:00:15.946Z,20.16
2018-06-13T09:00:57.416Z,20.08
2018-06-13T09:01:39.184Z,20.08
2018-06-13T09:02:19.972Z,19.97
2018-06-13T09:03:00.689Z,20.12
2018-06-13T09:03:43.328Z,20.01
2018-06-13T09:04:24.072Z,20.08
2018-06-13T09:05:05.455Z,20.02
2018-06-13T09:05:45.441Z,19.94
2018-06-13T09:07:03.498Z,19.97
2018-06-13T09:07:44.107Z,19.72
2018-06-13T09:08:24.550Z,19.78
2018-06-13T09:09:05.533Z,19.79
2018-06-13T09:09:46.052Z,19.7
2018-06-13T09:10:26.575Z,19.8
2018-06-13T09:11:07.103Z,19.75
2018-06-13T09:11:47.555Z,19.68
2018-06-13T09:12:28.641Z,19.6
2018-06-13T09:13:10.458Z,19.68
2018-06-13T09:13:51.348Z,19.58
2018-06-13T09:14:34.528Z,19.76
2018-06-13T09:15:14.618Z,19.7
2018-06-13T09:15:55.080Z,19.78
2018-06-13T09:16:35.919Z,19.7
2018-06-13T09:17:16.328Z,19.75
2018-06-13T09:17:56.976Z,19.78
2018-06-13T09:18:37.714Z,19.71
2018-06-13T09:19:19.091Z,19.7
2018-06-13T09:19:59.392Z,19.75
2018-06-13T09:20:41.505Z,19.7
2018-06-13T09:21:22.757Z,19.85
2018-06-13T09:22:03.504Z,19.79
2018-06-13T09:22:44.108Z,19.65
2018-06-13T09:23:24.544Z,19.8
2018-06-13T09:24:05.130Z,19.75
2018-06-13T09:24:46.584Z,19.72
2018-06-13T09:25:27.157Z,19.72
2018-06-13T09:26:07.883Z,19.75
2018-06-13T09:26:49.368Z,19.65
2018-06-13T09:27:29.779Z,19.68
2018-06-13T09:28:10.143Z,19.61
2018-06-13T09:28:51.592Z,19.62
2018-06-13T09:29:32.208Z,19.6
2018-06-13T09:30:12.640Z,19.64
2018-06-13T09:30:53.844Z,19.53
2018-06-13T09:31:38.035Z,19.5
2018-06-13T09:32:19.148Z,19.49
2018-06-13T09:32:59.647Z,19.5
2018-06-13T09:33:40.349Z,19.43
2018-06-13T09:34:21.061Z,19.47
2018-06-13T09:35:01.700Z,19.38
2018-06-13T09:35:42.267Z,19.34
2018-06-13T09:36:22.831Z,19.35
2018-06-13T09:37:03.972Z,19.38
2018-06-13T09:38:50.448Z,19.17
2018-06-13T09:39:33.307Z,19.28
2018-06-13T09:46:37.924Z,19.1
2018-06-13T09:47:23.458Z,18.97
2018-06-13T09:48:04.174Z,19.06
2018-06-13T09:48:49.935Z,19.12
2018-06-13T09:49:31.904Z,19.05
2018-06-13T09:50:13.463Z,19.06
2018-06-13T09:50:55.065Z,18.99
2018-06-13T09:51:36.323Z,19.05
2018-06-13T09:52:17.747Z,19.02
2018-06-13T09:52:59.078Z,19.02
2018-06-13T09:53:40.844Z,19.01
2018-06-13T09:54:21.552Z,19.13
2018-06-13T09:55:03.886Z,19.21
2018-06-13T09:55:45.473Z,19.24
2018-06-13T09:56:32.000Z,19.31
2018-06-13T09:57:13.243Z,19.49
2018-06-13T09:57:55.085Z,19.53
2018-06-13T09:58:36.074Z,19.5
2018-06-13T09:59:17.030Z,19.57
2018-06-13T09:59:59.401Z,19.61
2018-06-13T10:00:40.976Z,19.72
2018-06-13T10:01:21.128Z,19.7
2018-06-13T10:02:02.802Z,19.79
2018-06-13T10:02:45.141Z,19.76
2018-06-13T10:03:27.585Z,19.92
2018-06-13T10:42:35.774Z,20.05
2018-06-13T10:44:58.503Z,19.94
2018-06-13T10:45:39.716Z,20.02
2018-06-13T10:46:21.617Z,19.87
2018-06-13T10:47:02.510Z,19.87
2018-06-13T10:47:43.542Z,19.83
2018-06-13T10:48:23.448Z,19.87
2018-06-13T10:53:24.660Z,19.97
2018-06-13T10:54:05.420Z,19.9
2018-06-13T10:54:46.040Z,19.86
2018-06-13T10:55:28.101Z,19.9
2018-06-13T10:56:09.492Z,19.85
2018-06-13T10:56:52.181Z,19.89
2018-06-13T10:57:33.757Z,19.9
2018-06-13T10:58:15.058Z,19.9
2018-06-13T10:58:55.094Z,19.87
2018-06-13T10:59:36.650Z,19.89
2018-06-13T11:00:18.245Z,19.92
2018-06-13T11:00:58.754Z,20.02
2018-06-13T11:01:39.178Z,20.07
2018-06-13T11:02:20.199Z,20.04
2018-06-13T11:03:00.757Z,20.08
2018-06-13T11:03:41.163Z,20.13
2018-06-13T11:04:22.630Z,20.1
2018-06-13T11:05:02.609Z,20.13
2018-06-13T11:05:44.752Z,20.1
2018-06-13T11:06:26.979Z,20.13
2018-06-13T11:07:09.910Z,20.22
2018-06-13T11:07:48.717Z,20.26
2018-06-13T11:08:29.716Z,20.27
2018-06-13T11:09:11.632Z,20.26
2018-06-13T11:09:54.315Z,20.44
2018-06-13T11:11:41.698Z,20.53
2018-06-13T11:12:21.977Z,20.64
2018-06-13T11:13:02.344Z,20.68
2018-06-13T11:13:42.881Z,20.79
2018-06-13T11:14:23.569Z,20.85
2018-06-13T11:15:04.330Z,20.91
2018-06-13T11:15:45.206Z,20.93
2018-06-13T11:16:25.570Z,21.01
2018-06-13T11:17:06.687Z,21.05
2018-06-13T11:17:47.221Z,20.97
2018-06-13T11:18:28.213Z,21.11
2018-06-13T11:19:09.288Z,21.15
2018-06-13T11:19:49.742Z,21.27
2018-06-13T11:20:30.292Z,21.24
2018-06-13T11:21:10.925Z,21.3
2018-06-13T11:21:52.317Z,21.46
2018-06-13T11:22:32.678Z,21.48
2018-06-13T11:23:13.247Z,21.53
2018-06-13T11:23:54.620Z,21.51
2018-06-13T11:24:36.250Z,21.61
2018-06-13T11:25:16.594Z,21.64
2018-06-13T11:25:58.707Z,21.58
2018-06-13T11:26:39.343Z,21.68
2018-06-13T11:27:20.024Z,21.66
2018-06-13T11:28:00.559Z,21.82
2018-06-13T11:28:41.686Z,21.91
2018-06-13T11:29:22.106Z,22.01
2018-06-13T11:30:02.614Z,21.98
2018-06-13T11:30:43.388Z,22.04
2018-06-13T11:31:24.633Z,22.17
2018-06-13T11:32:05.244Z,22.23
2018-06-13T11:32:45.932Z,22.33
2018-06-13T11:33:27.519Z,22.36
2018-06-13T11:35:19.231Z,22.45
2018-06-13T11:36:04.160Z,22.52
2018-06-13T11:36:44.688Z,22.56
2018-06-13T11:37:25.833Z,22.63
2018-06-13T11:38:07.305Z,22.64
2018-06-13T11:38:48.664Z,22.61
2018-06-13T11:39:30.360Z,22.74
2018-06-13T11:40:11.159Z,22.61
2018-06-13T11:40:51.641Z,22.69
2018-06-13T11:41:32.849Z,22.74
2018-06-13T11:42:13.867Z,22.82
2018-06-13T11:42:54.533Z,22.69
2018-06-13T11:43:35.644Z,22.82
2018-06-13T11:44:16.053Z,22.84
2018-06-13T11:44:57.709Z,22.79
2018-06-13T11:45:40.052Z,22.75
2018-06-13T11:46:20.543Z,22.85
2018-06-13T11:47:17.566Z,22.89
2018-06-13T11:47:58.261Z,22.85
2018-06-13T11:48:39.659Z,22.97